Elwood, New York
Current Conditions -  °F | °C
As of 10:53 AM on Friday 28 Nov 2014 (Local Time) from KFRG Reporting Station
Clear Clear  
Wind Chill: 29°   Ceiling: Unl
Heat Index: 38°   Visibility: 10mi
Dew Point: 19°   Wind: 16mph
Humidity: 47%   Direction: 330°NNW
Pressure: 30.15"   Gusts: 25mph
Location:  40.85°N, 73.33°W
Report Text: KFRG 281553Z 33014G22KT 10SM CLR 03/M07 A3015 RMK AO2 SLP211 T00331072
Loading
Personal Weather Stations






























Interactive Weather Map New forecast layout! Learn more

10-Day Weather Forecast

Advertisements
Track Severe Weather on mobile